Time;durP1;ratioP1;P1;durP2;ratioP2;P2;SDS_P1;SDS_P2;PMS_P1;PMS_P2;Temp;Humidity;BMP_temperature;BMP_pressure;BME280_temperature;BME280_humidity;BME280_pressure;Samples;Min_cycle;Max_cycle;Signal;HPM_P1;HPM_P2
2021/08/04 00:00:10;;;;;;;1.90;1.08;;;15.80;99.90;;;;;;5115704;28;20104;-60
2021/08/04 00:02:36;;;;;;;1.13;1.00;;;15.80;99.90;;;;;;5115618;28;20397;-60
2021/08/04 00:05:03;;;;;;;1.38;1.13;;;15.80;99.90;;;;;;5115854;28;20048;-61
2021/08/04 00:07:28;;;;;;;1.02;0.95;;;15.80;99.90;;;;;;5115761;28;20047;-60
2021/08/04 00:09:54;;;;;;;2.10;1.15;;;15.80;99.90;;;;;;5115593;28;20462;-61
2021/08/04 00:12:20;;;;;;;2.35;1.17;;;15.80;99.90;;;;;;5115267;28;20036;-61
2021/08/04 00:14:45;;;;;;;3.65;1.60;;;15.70;99.90;;;;;;5115503;28;20126;-61
2021/08/04 00:17:11;;;;;;;2.00;1.10;;;15.80;99.90;;;;;;5115433;28;20043;-61
2021/08/04 00:19:37;;;;;;;1.73;1.27;;;15.70;99.90;;;;;;5115281;28;20496;-61
2021/08/04 00:22:03;;;;;;;1.95;1.38;;;15.70;99.90;;;;;;5096188;28;20401;-60
2021/08/04 00:24:29;;;;;;;2.22;1.73;;;15.70;99.90;;;;;;5114946;28;20488;-61
2021/08/04 00:26:55;;;;;;;4.20;1.33;;;15.70;99.90;;;;;;5114976;28;20052;-61
2021/08/04 00:29:20;;;;;;;3.55;1.30;;;15.60;99.90;;;;;;5115208;28;20092;-60
2021/08/04 00:31:46;;;;;;;3.00;1.10;;;15.70;99.90;;;;;;5115137;28;20489;-60
2021/08/04 00:34:12;;;;;;;1.80;1.40;;;15.70;99.90;;;;;;5115010;28;20048;-60
2021/08/04 00:36:38;;;;;;;1.45;1.10;;;15.70;99.90;;;;;;5114931;28;20039;-60
2021/08/04 00:39:04;;;;;;;1.35;1.00;;;15.70;99.90;;;;;;5114821;28;20043;-60
2021/08/04 00:41:37;;;;;;;1.90;1.17;;;15.70;99.90;;;;;;5114306;28;20040;-60
2021/08/04 00:44:03;;;;;;;1.98;1.00;;;15.70;99.90;;;;;;5114716;28;20046;-60
2021/08/04 00:46:29;;;;;;;3.03;1.13;;;15.70;99.90;;;;;;5114936;28;20052;-61
2021/08/04 00:48:55;;;;;;;2.58;1.30;;;15.70;99.90;;;;;;5114629;28;20043;-60
2021/08/04 00:51:20;;;;;;;2.35;1.15;;;15.70;99.90;;;;;;5096502;28;20150;-60
2021/08/04 00:53:46;;;;;;;5.65;1.50;;;15.70;99.90;;;;;;5114595;28;20048;-60
2021/08/04 00:56:12;;;;;;;1.65;1.15;;;15.70;99.90;;;;;;5114448;28;20401;-61
2021/08/04 00:58:41;;;;;;;1.35;1.20;;;15.60;99.90;;;;;;5114323;28;20048;-60
2021/08/04 01:01:13;;;;;;;1.30;1.05;;;15.70;99.90;;;;;;5114519;28;20078;-60
2021/08/04 01:03:44;;;;;;;1.20;1.05;;;15.70;99.90;;;;;;5114295;28;20498;-61
2021/08/04 01:06:20;;;;;;;1.13;0.93;;;15.70;99.90;;;;;;5114314;28;20043;-60
2021/08/04 01:08:56;;;;;;;1.40;0.90;;;15.60;99.90;;;;;;5114353;28;20115;-60
2021/08/04 01:11:29;;;;;;;2.38;1.08;;;15.60;99.90;;;;;;5114298;28;20054;-60
2021/08/04 01:13:58;;;;;;;1.98;1.15;;;15.70;99.90;;;;;;5114303;28;20134;-60
2021/08/04 01:16:27;;;;;;;2.00;1.10;;;15.70;99.90;;;;;;5114217;28;20040;-60
2021/08/04 01:19:19;;;;;;;1.25;0.90;;;15.60;99.90;;;;;;5114432;28;20043;-59
2021/08/04 01:22:08;;;;;;;1.80;1.00;;;15.60;99.90;;;;;;5114219;28;20175;-60
2021/08/04 01:24:52;;;;;;;2.15;1.00;;;15.60;99.90;;;;;;5113262;28;20521;-60
2021/08/04 01:27:18;;;;;;;2.15;1.33;;;15.60;99.90;;;;;;5113843;28;20399;-60
2021/08/04 01:29:45;;;;;;;1.63;0.88;;;15.70;99.90;;;;;;5114177;28;20043;-60
2021/08/04 01:32:14;;;;;;;2.45;1.10;;;15.60;99.90;;;;;;5113945;28;20447;-59
2021/08/04 01:34:40;;;;;;;1.90;1.00;;;15.60;99.90;;;;;;5113872;28;20054;-60
2021/08/04 01:37:07;;;;;;;2.45;1.08;;;15.60;99.90;;;;;;5113698;28;20085;-60
2021/08/04 01:39:33;;;;;;;3.92;1.40;;;15.60;99.90;;;;;;5113821;28;20032;-59
2021/08/04 01:42:01;;;;;;;2.15;1.27;;;15.60;99.90;;;;;;5113716;28;20043;-59
2021/08/04 01:44:28;;;;;;;2.45;1.17;;;15.60;99.90;;;;;;5113454;28;20130;-61
2021/08/04 01:46:57;;;;;;;2.60;1.00;;;15.60;99.90;;;;;;5113496;28;20043;-60
2021/08/04 01:49:25;;;;;;;0.82;0.82;;;15.60;99.90;;;;;;5113622;28;20066;-59
2021/08/04 01:51:51;;;;;;;1.20;1.10;;;15.60;99.90;;;;;;5113009;28;20115;-59
2021/08/04 01:54:17;;;;;;;2.75;1.00;;;15.60;99.90;;;;;;5113222;28;20071;-59
2021/08/04 01:56:44;;;;;;;1.70;0.90;;;15.60;99.90;;;;;;5113248;28;20493;-60
2021/08/04 01:59:10;;;;;;;3.15;0.98;;;15.60;99.90;;;;;;5113444;28;20439;-60
2021/08/04 02:01:37;;;;;;;3.15;1.02;;;15.60;99.90;;;;;;5113298;28;20048;-60
2021/08/04 02:04:03;;;;;;;1.58;0.90;;;15.60;99.90;;;;;;5113117;28;20552;-60
2021/08/04 02:06:45;;;;;;;3.15;1.05;;;15.60;99.90;;;;;;5113278;28;20052;-59
2021/08/04 02:09:20;;;;;;;6.05;1.30;;;15.60;99.90;;;;;;5113205;28;20046;-60
2021/08/04 02:12:01;;;;;;;0.98;0.80;;;15.60;99.90;;;;;;5113266;28;20130;-60
2021/08/04 02:14:32;;;;;;;1.67;1.20;;;15.60;99.90;;;;;;5113037;28;20040;-59
2021/08/04 02:17:25;;;;;;;1.10;0.93;;;15.60;99.90;;;;;;5113171;28;20104;-59
2021/08/04 02:19:59;;;;;;;2.13;0.90;;;15.60;99.90;;;;;;5010541;28;20484;-60
2021/08/04 02:22:30;;;;;;;1.70;1.00;;;15.60;99.90;;;;;;5010518;28;20129;-60
2021/08/04 02:25:09;;;;;;;2.47;0.70;;;15.60;99.90;;;;;;5010402;28;20054;-59
2021/08/04 02:27:37;;;;;;;;;;;15.60;99.90;;;;;;5010850;28;20489;-59
2021/08/04 02:30:05;;;;;;;2.05;1.10;;;15.60;99.90;;;;;;5010328;28;19918;-60
2021/08/04 02:32:30;;;;;;;2.00;0.80;;;15.60;99.90;;;;;;5010415;28;20059;-60
2021/08/04 02:34:57;;;;;;;4.10;0.93;;;15.60;99.90;;;;;;5010356;28;20042;-60
2021/08/04 02:37:24;;;;;;;0.60;0.60;;;15.60;99.90;;;;;;5010129;28;20049;-59
2021/08/04 02:39:50;;;;;;;0.80;0.70;;;15.60;99.90;;;;;;5010235;28;20061;-60
2021/08/04 02:42:17;;;;;;;0.80;0.70;;;15.50;99.90;;;;;;5010156;28;20125;-60
2021/08/04 02:44:43;;;;;;;0.85;0.70;;;15.60;99.90;;;;;;5010012;28;20042;-59
2021/08/04 02:47:10;;;;;;;1.38;0.90;;;15.60;99.90;;;;;;5010105;28;20057;-59
2021/08/04 02:49:36;;;;;;;1.20;0.60;;;15.60;99.90;;;;;;5010076;28;20049;-60
2021/08/04 02:52:03;;;;;;;2.45;0.90;;;15.60;99.90;;;;;;5010070;28;20060;-59
2021/08/04 02:54:28;;;;;;;1.48;0.70;;;15.60;99.90;;;;;;5009945;28;20045;-60
2021/08/04 02:56:54;;;;;;;0.43;0.40;;;15.60;99.90;;;;;;5066040;28;20047;-60
2021/08/04 02:59:20;;;;;;;1.20;0.80;;;15.60;99.90;;;;;;5112107;28;20048;-60
2021/08/04 03:01:46;;;;;;;2.60;0.70;;;15.60;99.90;;;;;;5112659;28;20058;-59
2021/08/04 03:04:12;;;;;;;0.77;0.60;;;15.60;99.90;;;;;;5112320;28;20039;-60
2021/08/04 03:06:38;;;;;;;1.67;0.63;;;15.50;99.90;;;;;;5112258;28;20126;-60
2021/08/04 03:09:04;;;;;;;1.38;0.70;;;15.60;99.90;;;;;;5112214;28;20062;-60
2021/08/04 03:11:29;;;;;;;1.45;0.80;;;15.60;99.90;;;;;;5112117;28;20040;-60
2021/08/04 03:13:55;;;;;;;1.52;0.82;;;15.50;99.90;;;;;;5112070;28;20047;-61
2021/08/04 03:16:21;;;;;;;1.58;0.80;;;15.50;99.90;;;;;;5112279;28;20044;-60
2021/08/04 03:18:47;;;;;;;1.08;0.70;;;15.50;99.90;;;;;;5112208;28;20134;-60
2021/08/04 03:21:13;;;;;;;1.88;1.00;;;15.50;99.90;;;;;;5112079;28;20134;-59
2021/08/04 03:23:38;;;;;;;2.17;0.80;;;15.50;99.90;;;;;;5111891;28;20474;-60
2021/08/04 03:26:04;;;;;;;1.23;0.63;;;15.40;99.90;;;;;;5111911;28;20052;-60
2021/08/04 03:28:30;;;;;;;1.92;0.90;;;15.40;99.90;;;;;;5111980;28;20051;-60
2021/08/04 03:30:56;;;;;;;0.90;0.90;;;15.50;99.90;;;;;;5112040;28;20067;-60
2021/08/04 03:33:21;;;;;;;0.90;0.82;;;15.50;99.90;;;;;;5111999;28;20043;-60
2021/08/04 03:35:47;;;;;;;1.02;0.88;;;15.50;99.90;;;;;;5111930;28;20405;-60
2021/08/04 03:38:13;;;;;;;0.73;0.70;;;15.50;99.90;;;;;;5111951;28;20043;-59
2021/08/04 03:40:38;;;;;;;1.60;0.60;;;15.40;99.90;;;;;;5111730;28;20040;-60
2021/08/04 03:43:04;;;;;;;2.60;1.08;;;15.40;99.90;;;;;;5112168;28;20043;-60
2021/08/04 03:45:30;;;;;;;1.88;0.70;;;15.40;99.90;;;;;;5112056;28;20048;-60
2021/08/04 03:47:56;;;;;;;2.35;0.80;;;15.40;99.90;;;;;;5112111;28;20044;-60
2021/08/04 03:50:22;;;;;;;1.88;0.85;;;15.40;99.90;;;;;;5111707;28;20044;-60
2021/08/04 03:52:48;;;;;;;0.73;0.63;;;15.40;99.90;;;;;;5111771;28;20131;-59
2021/08/04 03:55:14;;;;;;;1.27;0.90;;;15.40;99.90;;;;;;5111636;28;20093;-60
2021/08/04 03:57:40;;;;;;;0.90;0.70;;;15.40;99.90;;;;;;5093494;28;20048;-60
2021/08/04 04:00:07;;;;;;;1.70;0.90;;;15.40;99.90;;;;;;5111786;28;20051;-60
2021/08/04 04:02:33;;;;;;;1.60;0.93;;;15.40;99.90;;;;;;5111751;28;20050;-59
2021/08/04 04:05:01;;;;;;;0.63;0.63;;;15.40;99.90;;;;;;5111481;28;20481;-59
2021/08/04 04:07:40;;;;;;;3.40;0.80;;;15.40;99.90;;;;;;5111581;28;20100;-59
2021/08/04 04:10:07;;;;;;;1.90;1.02;;;15.40;99.90;;;;;;5111744;28;20040;-60
2021/08/04 04:12:33;;;;;;;1.15;1.00;;;15.50;99.90;;;;;;5111750;28;20044;-59
2021/08/04 04:14:59;;;;;;;2.85;0.88;;;15.50;99.90;;;;;;5112100;28;20070;-60
2021/08/04 04:17:25;;;;;;;1.25;0.88;;;15.40;99.90;;;;;;5115257;28;20481;-60
2021/08/04 04:19:51;;;;;;;3.33;1.10;;;15.40;99.90;;;;;;5115249;28;20043;-59
2021/08/04 04:22:17;;;;;;;2.20;1.00;;;15.40;99.90;;;;;;5115173;28;20043;-59
2021/08/04 04:24:43;;;;;;;2.50;0.80;;;15.40;99.90;;;;;;5115483;28;20054;-59
2021/08/04 04:27:09;;;;;;;1.38;0.80;;;15.40;99.90;;;;;;5115173;28;20040;-60
2021/08/04 04:29:35;;;;;;;1.85;0.90;;;15.40;99.90;;;;;;5115157;28;20050;-60
2021/08/04 04:32:01;;;;;;;1.10;0.82;;;15.40;99.90;;;;;;5115024;28;20037;-59
2021/08/04 04:34:27;;;;;;;1.20;1.10;;;15.40;99.90;;;;;;5114922;28;20092;-59
2021/08/04 04:36:53;;;;;;;1.13;0.90;;;15.50;99.90;;;;;;5114890;28;20043;-59
2021/08/04 04:39:19;;;;;;;2.72;1.00;;;15.50;99.90;;;;;;5115062;28;20446;-59
2021/08/04 04:41:45;;;;;;;0.95;0.90;;;15.50;99.90;;;;;;5114817;28;20117;-59
2021/08/04 04:44:10;;;;;;;3.92;1.83;;;15.50;99.90;;;;;;5114837;28;20040;-59
2021/08/04 04:46:36;;;;;;;1.77;1.05;;;15.50;99.90;;;;;;5115123;28;20039;-60
2021/08/04 04:49:02;;;;;;;2.33;1.30;;;15.50;99.90;;;;;;5114681;28;20118;-59
2021/08/04 04:51:28;;;;;;;2.17;1.65;;;15.40;99.90;;;;;;5114642;28;20142;-59
2021/08/04 04:53:54;;;;;;;4.47;1.50;;;15.50;99.90;;;;;;5114725;28;20050;-59
2021/08/04 04:56:20;;;;;;;3.70;1.50;;;15.50;99.90;;;;;;5114754;28;20043;-60
2021/08/04 04:58:45;;;;;;;1.95;1.30;;;15.40;99.90;;;;;;5114374;28;20048;-60
2021/08/04 05:01:11;;;;;;;3.17;1.55;;;15.50;99.90;;;;;;5114430;28;20092;-59
2021/08/04 05:03:37;;;;;;;2.75;1.48;;;15.50;99.90;;;;;;5114266;28;20092;-60
2021/08/04 05:06:02;;;;;;;1.75;1.27;;;15.40;99.90;;;;;;5114311;28;20473;-60
2021/08/04 05:08:32;;;;;;;2.28;1.48;;;15.50;99.90;;;;;;5114476;28;20067;-60
2021/08/04 05:10:58;;;;;;;2.50;1.30;;;15.50;99.90;;;;;;5114274;28;20079;-60
2021/08/04 05:13:23;;;;;;;2.33;1.10;;;15.50;99.90;;;;;;5114137;28;20043;-60
2021/08/04 05:15:49;;;;;;;2.75;1.40;;;15.50;99.90;;;;;;5114439;28;20077;-60
2021/08/04 05:18:15;;;;;;;1.30;1.15;;;15.50;99.90;;;;;;5114443;28;20056;-60
2021/08/04 05:20:41;;;;;;;1.92;1.33;;;15.50;99.90;;;;;;5114122;28;20044;-59
2021/08/04 05:23:07;;;;;;;1.15;1.05;;;15.50;99.90;;;;;;5113908;28;20042;-60
2021/08/04 05:25:33;;;;;;;3.65;0.98;;;15.50;99.90;;;;;;5114146;28;20050;-60
2021/08/04 05:27:59;;;;;;;1.52;0.82;;;15.50;99.90;;;;;;5112717;28;20036;-60
2021/08/04 05:30:25;;;;;;;1.65;1.13;;;15.60;99.90;;;;;;5113916;28;20043;-60
2021/08/04 05:32:50;;;;;;;3.08;0.95;;;15.60;99.90;;;;;;5113896;28;20120;-60
2021/08/04 05:35:16;;;;;;;3.58;1.23;;;15.60;99.90;;;;;;5113535;28;20044;-60
2021/08/04 05:37:42;;;;;;;2.22;1.00;;;15.60;99.90;;;;;;5113965;28;20065;-60
2021/08/04 05:40:08;;;;;;;2.50;0.82;;;15.60;99.90;;;;;;5113652;28;20040;-59
2021/08/04 05:42:38;;;;;;;2.60;0.90;;;15.60;99.90;;;;;;5113708;28;20074;-60
2021/08/04 05:45:05;;;;;;;1.77;0.68;;;15.60;99.90;;;;;;5113622;28;20067;-60
2021/08/04 05:47:31;;;;;;;2.58;0.93;;;15.60;99.90;;;;;;5113435;28;20039;-60
2021/08/04 05:49:57;;;;;;;1.85;0.50;;;15.60;99.90;;;;;;5113433;28;20386;-60
2021/08/04 05:52:23;;;;;;;0.82;0.70;;;15.60;99.90;;;;;;5113481;28;20058;-60
2021/08/04 05:54:48;;;;;;;0.60;0.60;;;15.60;99.90;;;;;;5113535;28;20047;-60
2021/08/04 05:57:14;;;;;;;1.33;0.88;;;15.60;99.90;;;;;;5113188;28;20047;-60
2021/08/04 05:59:40;;;;;;;2.17;0.73;;;15.70;99.90;;;;;;5113443;28;20512;-60
2021/08/04 06:02:06;;;;;;;1.52;1.02;;;15.70;99.90;;;;;;5113268;28;20035;-60
2021/08/04 06:04:32;;;;;;;1.23;0.90;;;15.70;99.90;;;;;;5113424;28;20047;-60
2021/08/04 06:06:57;;;;;;;2.72;1.00;;;15.70;99.90;;;;;;5113315;28;20470;-59
2021/08/04 06:09:23;;;;;;;1.48;0.93;;;15.70;99.90;;;;;;5113266;28;20039;-60
2021/08/04 06:11:49;;;;;;;0.80;0.75;;;15.80;99.90;;;;;;5113399;28;20040;-60
2021/08/04 06:14:15;;;;;;;1.25;0.95;;;15.80;99.90;;;;;;5113196;28;20055;-60
2021/08/04 06:16:40;;;;;;;0.85;0.65;;;15.80;99.90;;;;;;5112982;28;20054;-59
2021/08/04 06:19:12;;;;;;;1.73;0.80;;;15.80;99.90;;;;;;5113194;28;20051;-60
2021/08/04 06:21:37;;;;;;;1.83;0.60;;;15.80;99.90;;;;;;5113132;28;20047;-59
2021/08/04 06:24:03;;;;;;;1.38;1.02;;;15.80;99.90;;;;;;5113095;28;20588;-59
2021/08/04 06:26:31;;;;;;;1.25;1.08;;;15.80;99.90;;;;;;5113048;28;20795;-60
2021/08/04 06:28:57;;;;;;;2.90;0.90;;;15.90;99.90;;;;;;5112848;28;20087;-59
2021/08/04 06:31:22;;;;;;;1.73;0.70;;;15.90;99.90;;;;;;5112662;28;20047;-59
2021/08/04 06:33:48;;;;;;;2.30;1.15;;;15.90;99.90;;;;;;5112880;28;20059;-61
2021/08/04 06:36:14;;;;;;;1.02;0.93;;;15.90;99.90;;;;;;5111708;28;20035;-60
2021/08/04 06:38:39;;;;;;;2.92;1.27;;;15.90;99.90;;;;;;5095520;28;20080;-59
2021/08/04 06:41:05;;;;;;;3.05;1.30;;;15.90;99.90;;;;;;5105946;28;20048;-60
2021/08/04 06:43:38;;;;;;;2.13;1.00;;;15.90;99.90;;;;;;5111485;28;20131;-59
2021/08/04 06:46:12;;;;;;;2.97;0.80;;;16.00;99.90;;;;;;5111402;28;20161;-60
2021/08/04 06:48:38;;;;;;;0.95;0.85;;;16.00;99.90;;;;;;5112646;28;20089;-60
2021/08/04 06:51:04;;;;;;;2.30;1.20;;;16.00;99.90;;;;;;5112445;28;20496;-59
2021/08/04 06:53:30;;;;;;;1.17;1.02;;;16.00;99.90;;;;;;5112424;28;20044;-60
2021/08/04 06:55:56;;;;;;;1.23;0.90;;;16.10;99.90;;;;;;5112528;28;20035;-60
2021/08/04 06:58:21;;;;;;;3.10;1.55;;;16.20;99.90;;;;;;5112522;28;20047;-60
2021/08/04 07:00:47;;;;;;;1.45;1.00;;;16.20;99.90;;;;;;5112295;28;20054;-60
2021/08/04 07:03:13;;;;;;;1.45;0.88;;;16.20;99.90;;;;;;5112339;28;20493;-60
2021/08/04 07:05:40;;;;;;;7.95;1.52;;;16.30;99.90;;;;;;5112092;28;20046;-60
2021/08/04 07:08:09;;;;;;;5.28;0.88;;;16.40;99.90;;;;;;5112376;28;20043;-60
2021/08/04 07:10:34;;;;;;;2.78;1.00;;;16.50;99.90;;;;;;5112212;28;20047;-59
2021/08/04 07:13:01;;;;;;;1.67;0.70;;;16.70;99.90;;;;;;5112015;28;20044;-59
2021/08/04 07:15:27;;;;;;;1.58;1.10;;;17.00;99.90;;;;;;5112172;28;20527;-59
2021/08/04 07:17:52;;;;;;;0.90;0.80;;;17.30;99.90;;;;;;5112098;28;20035;-61
2021/08/04 07:20:21;;;;;;;1.90;0.82;;;17.50;99.90;;;;;;5112033;28;20036;-59
2021/08/04 07:22:48;;;;;;;1.35;0.65;;;17.50;99.90;;;;;;5111916;28;20078;-60
2021/08/04 07:25:14;;;;;;;1.45;0.60;;;17.50;99.90;;;;;;5093927;28;20044;-60
2021/08/04 07:27:41;;;;;;;1.63;0.70;;;17.50;99.90;;;;;;5112003;28;20060;-60
2021/08/04 07:30:09;;;;;;;0.70;0.70;;;17.60;99.90;;;;;;5112027;28;20032;-60
2021/08/04 07:32:36;;;;;;;1.02;0.70;;;17.50;99.90;;;;;;5111942;28;20536;-60
2021/08/04 07:35:02;;;;;;;4.03;0.70;;;17.60;99.90;;;;;;5092998;28;20059;-59
2021/08/04 07:37:32;;;;;;;1.88;0.70;;;17.70;99.90;;;;;;5111891;28;20043;-60
2021/08/04 07:39:58;;;;;;;1.08;0.80;;;17.80;99.90;;;;;;5111872;28;20044;-59
2021/08/04 07:42:25;;;;;;;2.35;0.90;;;18.00;99.90;;;;;;5112256;28;20052;-59
2021/08/04 07:44:52;;;;;;;0.70;0.70;;;18.10;99.90;;;;;;5111913;28;20040;-60
2021/08/04 07:47:17;;;;;;;1.45;0.75;;;18.10;99.90;;;;;;5111687;28;20040;-59
2021/08/04 07:49:43;;;;;;;1.25;0.70;;;18.30;99.90;;;;;;5111878;28;20036;-60
2021/08/04 07:52:09;;;;;;;0.75;0.63;;;18.40;99.90;;;;;;5115789;28;20048;-59
2021/08/04 07:54:36;;;;;;;1.90;0.73;;;18.40;99.90;;;;;;5115779;28;20435;-60
2021/08/04 07:57:02;;;;;;;0.68;0.68;;;18.70;99.90;;;;;;5115686;28;20088;-60
2021/08/04 07:59:28;;;;;;;2.00;0.80;;;19.20;99.90;;;;;;5115630;28;20477;-59
2021/08/04 08:01:53;;;;;;;1.40;0.73;;;19.30;99.90;;;;;;5115661;28;20039;-59
2021/08/04 08:04:19;;;;;;;1.88;0.95;;;19.30;99.90;;;;;;5115550;28;20078;-59
2021/08/04 08:06:45;;;;;;;1.23;0.60;;;19.40;99.90;;;;;;5115548;28;20051;-59
2021/08/04 08:09:13;;;;;;;2.05;0.90;;;19.30;99.90;;;;;;5115450;28;20047;-59
2021/08/04 08:11:40;;;;;;;1.73;0.70;;;19.60;99.90;;;;;;5115332;28;20081;-60
2021/08/04 08:14:06;;;;;;;1.70;0.82;;;19.50;99.90;;;;;;5115372;28;20386;-59
2021/08/04 08:16:32;;;;;;;0.95;0.80;;;19.40;99.90;;;;;;5115479;28;20078;-60
2021/08/04 08:18:58;;;;;;;4.00;0.90;;;19.30;99.90;;;;;;5115237;28;20056;-59
2021/08/04 08:21:24;;;;;;;1.40;1.00;;;19.20;99.90;;;;;;5115298;28;20035;-59
2021/08/04 08:23:51;;;;;;;1.35;1.00;;;19.40;99.90;;;;;;5115051;28;20067;-59
2021/08/04 08:26:17;;;;;;;3.05;1.00;;;19.60;99.90;;;;;;5115382;28;20069;-59
2021/08/04 08:28:43;;;;;;;1.30;1.15;;;19.70;99.90;;;;;;5115089;28;20453;-60
2021/08/04 08:31:09;;;;;;;1.50;1.20;;;19.90;99.90;;;;;;5115046;28;20071;-59
2021/08/04 08:33:35;;;;;;;2.00;1.30;;;19.90;99.90;;;;;;5114994;28;20497;-59
2021/08/04 08:36:01;;;;;;;2.10;1.17;;;19.90;99.90;;;;;;5115354;28;20101;-59
2021/08/04 08:38:27;;;;;;;1.65;1.00;;;20.40;99.90;;;;;;5115049;28;20043;-60
2021/08/04 08:40:54;;;;;;;2.05;1.00;;;20.80;99.90;;;;;;5114982;28;20126;-60
2021/08/04 08:43:20;;;;;;;1.88;1.15;;;21.20;99.90;;;;;;5096609;28;20032;-59
2021/08/04 08:45:48;;;;;;;2.17;1.20;;;21.60;99.90;;;;;;5114749;28;20089;-60
2021/08/04 08:48:18;;;;;;;2.63;1.03;;;21.80;99.90;;;;;;5114817;28;20039;-59
2021/08/04 08:50:47;;;;;;;1.48;1.08;;;21.50;99.90;;;;;;5114793;28;20320;-59
2021/08/04 08:53:13;;;;;;;1.60;1.05;;;21.30;99.90;;;;;;5114587;28;20047;-60
2021/08/04 08:55:39;;;;;;;2.13;1.00;;;21.30;99.90;;;;;;5114621;28;20092;-60
2021/08/04 08:58:07;;;;;;;2.20;0.77;;;21.40;99.90;;;;;;5114670;28;20082;-59
2021/08/04 09:00:33;;;;;;;0.90;0.85;;;21.10;99.90;;;;;;5114330;28;20047;-60
2021/08/04 09:02:59;;;;;;;1.58;1.00;;;21.30;99.90;;;;;;5114771;28;20047;-60
2021/08/04 09:05:25;;;;;;;1.92;0.90;;;21.80;99.90;;;;;;5095993;28;20541;-59
2021/08/04 09:07:51;;;;;;;1.67;1.00;;;21.90;99.90;;;;;;5114880;28;20036;-60
2021/08/04 09:10:31;;;;;;;5.30;1.08;;;21.60;99.90;;;;;;5114326;28;20100;-60
2021/08/04 09:13:07;;;;;;;1.80;0.90;;;21.90;99.90;;;;;;5114319;28;20122;-60
2021/08/04 09:15:38;;;;;;;1.75;1.02;;;21.90;99.90;;;;;;5114645;28;20035;-59
2021/08/04 09:18:08;;;;;;;3.35;0.90;;;22.10;99.90;;;;;;5114100;28;20047;-60
2021/08/04 09:20:54;;;;;;;2.58;0.70;;;22.40;99.90;;;;;;5114052;28;20473;-60
2021/08/04 09:23:23;;;;;;;2.97;0.95;;;22.70;99.90;;;;;;5113895;28;20470;-60
2021/08/04 09:26:06;;;;;;;2.17;1.13;;;22.40;99.90;;;;;;5114106;28;20035;-59
2021/08/04 09:29:06;;;;;;;1.40;0.82;;;22.20;99.90;;;;;;5114024;28;20485;-60
2021/08/04 09:31:40;;;;;;;3.65;1.17;;;22.30;99.90;;;;;;5113799;28;20036;-60
2021/08/04 09:34:25;;;;;;;1.70;1.25;;;21.90;99.90;;;;;;5114235;28;20625;-60
2021/08/04 09:37:04;;;;;;;1.50;1.00;;;22.10;99.90;;;;;;5113780;28;20162;-61
2021/08/04 09:39:31;;;;;;;0.95;0.85;;;22.10;99.90;;;;;;5113823;28;20126;-60
2021/08/04 09:41:58;;;;;;;1.50;0.80;;;22.40;99.90;;;;;;5113642;28;20040;-60
2021/08/04 09:44:24;;;;;;;1.27;0.93;;;22.70;99.90;;;;;;5113645;28;20040;-60
2021/08/04 09:47:04;;;;;;;2.25;0.88;;;22.90;99.90;;;;;;5114079;28;20050;-60
2021/08/04 09:49:29;;;;;;;1.63;1.00;;;23.00;99.90;;;;;;5113766;28;20039;-61
2021/08/04 09:52:15;;;;;;;2.35;0.90;;;23.40;99.90;;;;;;5113433;28;20470;-60
2021/08/04 09:54:43;;;;;;;1.23;0.93;;;23.40;99.90;;;;;;5113504;28;20044;-61
2021/08/04 09:57:12;;;;;;;2.10;0.70;;;23.60;99.90;;;;;;5113278;28;20048;-60
2021/08/04 09:59:38;;;;;;;1.85;0.80;;;23.60;99.90;;;;;;5094868;28;20048;-61
2021/08/04 10:02:05;;;;;;;1.10;0.88;;;23.60;99.90;;;;;;5113534;28;20044;-60
2021/08/04 10:04:34;;;;;;;2.40;1.20;;;23.90;99.90;;;;;;5113292;28;20071;-60
2021/08/04 10:07:05;;;;;;;3.20;1.17;;;23.70;99.90;;;;;;5113441;28;20040;-60
2021/08/04 10:09:31;;;;;;;3.10;1.05;;;24.20;99.90;;;;;;5100209;27;20063;-61
2021/08/04 10:11:57;;;;;;;1.85;1.02;;;24.30;99.90;;;;;;5116992;27;20063;-61
2021/08/04 10:14:23;;;;;;;2.22;1.40;;;24.40;99.90;;;;;;5132837;27;20536;-61
2021/08/04 10:16:51;;;;;;;1.70;1.35;;;24.10;99.50;;;;;;5132009;27;20042;-61
2021/08/04 10:19:17;;;;;;;2.45;1.50;;;24.50;99.90;;;;;;5133731;27;20456;-62
2021/08/04 10:21:47;;;;;;;2.97;1.10;;;24.40;99.90;;;;;;5133686;27;20046;-61
2021/08/04 10:24:14;;;;;;;2.03;1.63;;;24.70;99.90;;;;;;5133439;27;20051;-61
2021/08/04 10:26:41;;;;;;;2.75;1.50;;;25.00;99.90;;;;;;5133392;27;20092;-61
2021/08/04 10:29:08;;;;;;;3.25;1.40;;;25.10;99.20;;;;;;5133366;27;20071;-61
2021/08/04 10:31:35;;;;;;;2.35;1.30;;;25.20;99.20;;;;;;5133288;27;20114;-61
2021/08/04 10:34:02;;;;;;;3.15;1.23;;;24.90;99.30;;;;;;5133400;27;20039;-60
2021/08/04 10:36:36;;;;;;;4.70;1.45;;;24.70;99.70;;;;;;5133146;27;20481;-61
2021/08/04 10:39:15;;;;;;;1.75;1.20;;;24.50;98.30;;;;;;5133183;27;20455;-61
2021/08/04 10:42:02;;;;;;;2.10;1.23;;;24.70;99.30;;;;;;5133605;27;20062;-61
2021/08/04 10:44:28;;;;;;;8.18;1.58;;;24.30;98.90;;;;;;5133256;27;20543;-60
2021/08/04 10:46:54;;;;;;;3.97;1.23;;;24.10;99.80;;;;;;5133330;27;20092;-61
2021/08/04 10:49:32;;;;;;;3.20;1.10;;;23.80;99.90;;;;;;5132955;27;20039;-61
2021/08/04 10:52:00;;;;;;;2.72;1.27;;;23.50;98.80;;;;;;5133042;27;20488;-61
2021/08/04 10:54:30;;;;;;;2.88;1.25;;;23.10;99.50;;;;;;5132951;27;20039;-60
2021/08/04 10:56:55;;;;;;;2.88;1.10;;;23.00;99.80;;;;;;5132920;27;20039;-60
2021/08/04 10:59:32;;;;;;;2.33;1.25;;;22.70;99.70;;;;;;5132652;27;20056;-61
2021/08/04 11:02:03;;;;;;;4.15;1.20;;;22.50;99.80;;;;;;5133115;27;20154;-61
2021/08/04 11:04:29;;;;;;;2.88;1.10;;;22.50;99.90;;;;;;5132610;27;20047;-61
2021/08/04 11:07:16;;;;;;;4.43;1.05;;;22.40;99.90;;;;;;5132940;27;20126;-61
2021/08/04 11:09:43;;;;;;;2.97;1.00;;;22.30;99.90;;;;;;5132939;27;20104;-61
2021/08/04 11:12:11;;;;;;;8.02;1.20;;;22.30;99.90;;;;;;5132696;27;20031;-61
2021/08/04 11:14:39;;;;;;;2.97;1.50;;;22.30;99.90;;;;;;5132632;27;20050;-61
2021/08/04 11:17:06;;;;;;;;;;;22.10;99.90;;;;;;5133122;27;20071;-60
2021/08/04 11:19:34;;;;;;;1.13;0.88;;;22.10;99.90;;;;;;5132609;28;19922;-60
2021/08/04 11:22:22;;;;;;;2.80;1.33;;;22.20;99.90;;;;;;5132664;28;20047;-60
2021/08/04 11:25:10;;;;;;;3.55;1.13;;;22.40;99.90;;;;;;5134530;27;20039;-59
2021/08/04 11:27:45;;;;;;;4.28;1.13;;;22.70;98.20;;;;;;5137008;27;20039;-61
2021/08/04 11:30:13;;;;;;;2.92;1.10;;;23.20;99.70;;;;;;5136866;27;20516;-60
2021/08/04 11:32:38;;;;;;;3.17;0.98;;;23.40;99.50;;;;;;5136915;27;20441;-61
2021/08/04 11:35:19;;;;;;;3.30;1.17;;;23.50;98.20;;;;;;5136662;27;20045;-60
2021/08/04 11:37:45;;;;;;;1.02;0.93;;;23.60;98.20;;;;;;5136600;27;20035;-61
2021/08/04 11:40:12;;;;;;;2.13;1.10;;;23.70;98.80;;;;;;5136555;27;20039;-61
2021/08/04 11:42:38;;;;;;;3.13;1.13;;;23.70;98.90;;;;;;5136728;27;20043;-60
2021/08/04 11:45:10;;;;;;;1.67;1.30;;;23.80;98.60;;;;;;5136394;27;20477;-60
2021/08/04 11:47:36;;;;;;;1.88;1.30;;;23.50;98.10;;;;;;5136533;27;20054;-61
2021/08/04 11:50:06;;;;;;;1.25;0.88;;;23.10;98.40;;;;;;5136279;27;20039;-61
2021/08/04 11:52:33;;;;;;;2.35;1.30;;;23.30;99.10;;;;;;5136481;27;20031;-61
2021/08/04 11:55:07;;;;;;;4.15;1.20;;;23.40;97.70;;;;;;5136578;27;20047;-61
2021/08/04 11:57:42;;;;;;;2.70;1.38;;;23.50;98.70;;;;;;5136249;27;20066;-61
2021/08/04 12:00:28;;;;;;;2.22;1.20;;;23.70;98.50;;;;;;5136318;27;20473;-61
2021/08/04 12:02:54;;;;;;;1.63;1.00;;;23.90;97.10;;;;;;5136156;27;20047;-61
2021/08/04 12:05:20;;;;;;;2.78;1.52;;;23.90;97.30;;;;;;5136203;27;20042;-60
2021/08/04 12:07:46;;;;;;;3.00;1.40;;;23.80;97.50;;;;;;5136715;27;20121;-62
2021/08/04 12:10:14;;;;;;;3.42;1.02;;;23.60;98.70;;;;;;5136274;27;20076;-61
2021/08/04 12:12:41;;;;;;;;;;;23.70;98.70;;;;;;5136618;27;20525;-61
2021/08/04 12:15:20;;;;;;;3.03;1.50;;;23.30;98.80;;;;;;5136060;27;19919;-61
2021/08/04 12:17:47;;;;;;;;;;;23.00;99.20;;;;;;5136506;27;20054;-61
2021/08/04 12:20:14;;;;;;;2.42;1.15;;;23.20;99.90;;;;;;5135991;27;19916;-61
2021/08/04 12:22:41;;;;;;;3.85;1.25;;;23.30;99.00;;;;;;5135945;27;20389;-61
2021/08/04 12:25:07;;;;;;;1.35;1.00;;;23.30;99.40;;;;;;5135767;27;20120;-61
2021/08/04 12:27:42;;;;;;;1.90;1.35;;;23.50;99.90;;;;;;5135597;27;20031;-61
2021/08/04 12:30:14;;;;;;;2.40;1.20;;;23.40;99.60;;;;;;5135719;27;20035;-61
2021/08/04 12:32:48;;;;;;;1.88;1.20;;;23.30;99.60;;;;;;5135777;27;20184;-61
2021/08/04 12:35:15;;;;;;;1.73;1.10;;;23.10;99.10;;;;;;5135514;27;20484;-61
2021/08/04 12:37:41;;;;;;;12.52;1.58;;;23.20;99.30;;;;;;5134827;27;20040;-61
2021/08/04 12:40:13;;;;;;;1.80;1.30;;;23.20;99.10;;;;;;5135499;27;20499;-61
2021/08/04 12:42:39;;;;;;;3.55;1.05;;;23.40;99.70;;;;;;5135601;27;20050;-60
2021/08/04 12:45:25;;;;;;;2.78;0.95;;;23.10;99.40;;;;;;5117170;27;20055;-61
2021/08/04 12:47:55;;;;;;;3.17;0.90;;;23.00;99.20;;;;;;5135221;27;20039;-60
2021/08/04 12:50:24;;;;;;;3.58;1.00;;;22.90;99.80;;;;;;5135361;27;20039;-60
2021/08/04 12:52:49;;;;;;;;;;;22.90;99.90;;;;;;5136090;27;20438;-61